createdAt,value
2022-09-14T00:00:42.640Z,86.84
2022-09-14T00:03:06.372Z,85.97
2022-09-14T00:05:29.990Z,85.38
2022-09-14T00:07:55.081Z,87.32
2022-09-14T00:10:18.810Z,87.01
2022-09-14T00:12:42.378Z,87.24
2022-09-14T00:15:07.570Z,85.49
2022-09-14T00:17:31.110Z,86.13
2022-09-14T00:19:54.967Z,87.27
2022-09-14T00:22:18.770Z,87.38
2022-09-14T00:24:43.683Z,86.24
2022-09-14T00:27:07.374Z,86.34
2022-09-14T00:29:31.667Z,85.91
2022-09-14T00:31:55.399Z,85.68
2022-09-14T00:34:19.526Z,86.43
2022-09-14T00:36:46.395Z,86.56
2022-09-14T00:39:11.216Z,86.05
2022-09-14T00:41:40.368Z,86.41
2022-09-14T00:44:07.555Z,85.49
2022-09-14T00:46:33.779Z,86.16
2022-09-14T00:49:00.307Z,87.75
2022-09-14T00:51:26.029Z,87.77
2022-09-14T00:53:50.480Z,86.58
2022-09-14T00:56:14.371Z,86.04
2022-09-14T00:58:40.328Z,86.17
2022-09-14T01:01:04.016Z,85.85
2022-09-14T01:03:27.544Z,86.60
2022-09-14T01:06:03.399Z,86.07
2022-09-14T01:08:58.216Z,85.97
2022-09-14T01:11:41.367Z,86.89
2022-09-14T01:14:15.758Z,87.20
2022-09-14T01:16:49.740Z,86.79
2022-09-14T01:19:25.159Z,87.29
2022-09-14T01:21:49.795Z,87.23
2022-09-14T01:24:23.246Z,86.02
2022-09-14T01:27:26.915Z,86.35
2022-09-14T01:30:06.388Z,85.64
2022-09-14T01:32:35.507Z,85.67
2022-09-14T01:35:06.332Z,86.37
2022-09-14T01:37:35.442Z,86.24
2022-09-14T01:40:04.856Z,87.22
2022-09-14T01:42:31.596Z,86.22
2022-09-14T01:45:00.399Z,86.76
2022-09-14T01:47:29.603Z,86.81
2022-09-14T01:49:58.849Z,86.54
2022-09-14T01:52:27.072Z,86.45
2022-09-14T01:54:54.223Z,87.35
2022-09-14T01:57:22.812Z,87.90
2022-09-14T01:59:50.503Z,87.57
2022-09-14T02:02:19.542Z,86.36
2022-09-14T02:04:49.788Z,89.64
2022-09-14T02:07:13.627Z,86.40
2022-09-14T02:09:37.379Z,87.90
2022-09-14T02:12:01.598Z,86.33
2022-09-14T02:14:25.159Z,88.11
2022-09-14T02:16:50.148Z,86.96
2022-09-14T02:19:14.784Z,87.34
2022-09-14T02:21:38.964Z,87.08
2022-09-14T02:24:03.501Z,86.75
2022-09-14T02:26:28.179Z,87.57
2022-09-14T02:28:55.914Z,87.46
2022-09-14T02:31:30.328Z,86.81
2022-09-14T02:34:06.836Z,87.00
2022-09-14T02:36:48.075Z,87.09
2022-09-14T02:39:25.719Z,86.86
2022-09-14T02:41:53.448Z,86.89
2022-09-14T02:44:27.588Z,85.88
2022-09-14T02:47:00.441Z,85.93
2022-09-14T02:49:36.075Z,87.39
2022-09-14T02:52:07.779Z,87.64
2022-09-14T02:54:36.797Z,86.52
2022-09-14T02:57:02.460Z,87.18
2022-09-14T02:59:26.281Z,87.87
2022-09-14T03:01:50.173Z,86.80
2022-09-14T03:04:13.793Z,86.52
2022-09-14T03:06:38.742Z,85.64
2022-09-14T03:09:02.321Z,86.12
2022-09-14T03:11:25.911Z,85.86
2022-09-14T03:13:49.760Z,85.61
2022-09-14T03:16:15.829Z,86.14
2022-09-14T03:18:40.281Z,85.49
2022-09-14T03:21:05.986Z,85.50
2022-09-14T03:23:30.932Z,85.99
2022-09-14T03:25:54.448Z,85.58
2022-09-14T03:28:18.003Z,85.55
2022-09-14T03:30:41.814Z,85.77
2022-09-14T03:33:06.268Z,86.78
2022-09-14T03:35:31.457Z,86.25
2022-09-14T03:37:55.044Z,87.14
2022-09-14T03:40:22.079Z,86.60
2022-09-14T03:42:49.205Z,86.28
2022-09-14T03:45:13.958Z,85.55
2022-09-14T03:47:37.524Z,85.58
2022-09-14T03:50:01.051Z,86.22
2022-09-14T03:52:24.615Z,85.75
2022-09-14T03:54:48.137Z,85.99
2022-09-14T03:57:13.102Z,87.32
2022-09-14T03:59:39.444Z,86.57
2022-09-14T04:02:06.758Z,89.44
2022-09-14T04:04:30.755Z,87.43
2022-09-14T04:06:54.931Z,87.58
2022-09-14T04:09:19.301Z,87.30
2022-09-14T04:11:42.915Z,90.66
2022-09-14T04:14:08.501Z,92.49
2022-09-14T04:16:32.803Z,93.59
2022-09-14T04:18:56.532Z,92.74
2022-09-14T04:21:23.123Z,92.28
2022-09-14T04:24:10.601Z,93.70
2022-09-14T04:26:32.648Z,94.84
2022-09-14T04:28:57.407Z,93.23
2022-09-14T04:31:22.440Z,94.80
2022-09-14T04:33:46.446Z,92.91
2022-09-14T04:36:12.458Z,93.43
2022-09-14T04:38:37.396Z,92.79
2022-09-14T04:41:01.709Z,91.65
2022-09-14T04:43:25.796Z,91.25
2022-09-14T04:45:49.383Z,93.81
2022-09-14T04:48:14.372Z,93.58
2022-09-14T04:50:38.178Z,92.33
2022-09-14T04:53:01.699Z,91.96
2022-09-14T04:55:25.367Z,92.45
2022-09-14T04:57:49.424Z,90.97
2022-09-14T05:00:14.543Z,89.36
2022-09-14T05:02:42.397Z,89.52
2022-09-14T05:05:08.275Z,88.55
2022-09-14T05:07:31.824Z,88.96
2022-09-14T05:09:55.403Z,88.95
2022-09-14T05:12:18.903Z,89.12
2022-09-14T05:14:42.511Z,88.58
2022-09-14T05:17:06.160Z,91.52
2022-09-14T05:19:29.754Z,91.09
2022-09-14T05:21:54.655Z,90.33
2022-09-14T05:24:20.451Z,89.95
2022-09-14T05:26:45.345Z,90.53
2022-09-14T05:29:09.090Z,90.70
2022-09-14T05:31:33.404Z,90.38
2022-09-14T05:33:57.222Z,90.62
2022-09-14T05:36:21.382Z,89.27
2022-09-14T05:38:46.666Z,90.27
2022-09-14T05:41:13.416Z,91.02
2022-09-14T05:43:37.022Z,91.25
2022-09-14T05:46:04.258Z,91.09
2022-09-14T05:48:27.835Z,91.23
2022-09-14T05:50:59.420Z,90.84
2022-09-14T05:53:22.999Z,91.72
2022-09-14T05:55:47.918Z,92.59
2022-09-14T05:58:13.412Z,92.68
2022-09-14T06:00:36.991Z,92.58
2022-09-14T06:03:00.578Z,91.99
2022-09-14T06:05:25.413Z,91.60
2022-09-14T06:07:53.144Z,92.10
2022-09-14T06:10:16.848Z,91.33
2022-09-14T06:12:41.806Z,92.34
2022-09-14T06:15:06.607Z,92.21
2022-09-14T06:17:31.575Z,92.90
2022-09-14T06:19:55.061Z,94.14
2022-09-14T06:22:18.687Z,92.46
2022-09-14T06:24:42.639Z,92.89
2022-09-14T06:27:08.974Z,91.64
2022-09-14T06:29:33.928Z,90.20
2022-09-14T06:31:57.530Z,90.88
2022-09-14T06:34:21.087Z,87.50
2022-09-14T06:36:44.917Z,89.36
2022-09-14T06:39:08.426Z,85.80
2022-09-14T06:41:33.062Z,85.35
2022-09-14T06:43:59.427Z,82.24
2022-09-14T06:46:27.069Z,81.31
2022-09-14T06:48:54.226Z,78.11
2022-09-14T06:51:20.775Z,78.25
2022-09-14T06:53:44.827Z,79.38
2022-09-14T06:56:08.475Z,72.80
2022-09-14T06:58:31.979Z,74.65
2022-09-14T07:00:55.607Z,76.94
2022-09-14T07:03:20.559Z,76.51
2022-09-14T07:05:44.134Z,73.70
2022-09-14T07:08:11.896Z,73.66
2022-09-14T07:10:35.969Z,75.44
2022-09-14T07:13:00.667Z,75.41
2022-09-14T07:15:24.280Z,75.22
2022-09-14T07:17:48.211Z,76.56
2022-09-14T07:20:15.410Z,77.75
2022-09-14T07:22:38.944Z,78.26
2022-09-14T07:25:02.548Z,77.47
2022-09-14T07:27:26.098Z,75.72
2022-09-14T07:29:49.772Z,76.85
2022-09-14T07:32:13.276Z,75.30
2022-09-14T07:34:36.836Z,76.05
2022-09-14T07:37:01.818Z,77.34
2022-09-14T07:39:25.384Z,75.71
2022-09-14T07:41:49.090Z,74.03
2022-09-14T07:44:17.012Z,71.94
2022-09-14T07:46:43.229Z,75.91
2022-09-14T07:49:08.218Z,74.75
2022-09-14T07:51:33.272Z,73.26
2022-09-14T07:54:00.037Z,73.88
2022-09-14T07:56:25.736Z,72.79
2022-09-14T07:58:54.554Z,73.39
2022-09-14T08:01:19.268Z,70.55
2022-09-14T08:03:44.988Z,76.08
2022-09-14T08:06:11.030Z,72.53
2022-09-14T08:08:41.829Z,73.02
2022-09-14T08:11:11.164Z,72.16
2022-09-14T08:13:35.743Z,74.06
2022-09-14T08:16:00.271Z,73.16
2022-09-14T08:18:23.746Z,72.06
2022-09-14T08:20:47.224Z,71.95
2022-09-14T08:23:11.180Z,72.03
2022-09-14T08:25:34.655Z,71.86
2022-09-14T08:27:59.632Z,68.92
2022-09-14T08:30:23.110Z,71.03
2022-09-14T08:32:47.399Z,69.85
2022-09-14T08:35:11.302Z,71.05
2022-09-14T08:37:34.787Z,67.74
2022-09-14T08:39:58.278Z,66.59
2022-09-14T08:42:25.111Z,69.79
2022-09-14T08:44:56.530Z,67.34
2022-09-14T08:47:28.110Z,68.32
2022-09-14T08:49:58.803Z,65.95
2022-09-14T08:52:29.282Z,65.22
2022-09-14T08:54:57.688Z,66.48
2022-09-14T08:57:29.571Z,65.72
2022-09-14T09:00:06.947Z,66.54
2022-09-14T09:03:01.603Z,66.49
2022-09-14T09:05:37.677Z,64.62
2022-09-14T09:08:09.583Z,66.22
2022-09-14T09:10:35.267Z,63.72
2022-09-14T09:13:01.882Z,63.08
2022-09-14T09:15:32.143Z,62.45
2022-09-14T09:18:00.043Z,63.53
2022-09-14T09:20:28.684Z,64.32
2022-09-14T09:22:56.419Z,63.33
2022-09-14T09:25:24.190Z,64.72
2022-09-14T09:27:48.763Z,62.43
2022-09-14T09:30:15.877Z,61.32
2022-09-14T09:32:42.251Z,62.17
2022-09-14T09:35:33.870Z,61.10
2022-09-14T09:38:17.176Z,58.84
2022-09-14T09:40:45.532Z,60.31
2022-09-14T09:43:12.471Z,58.24
2022-09-14T09:45:51.322Z,58.49
2022-09-14T09:48:17.668Z,59.45
2022-09-14T09:50:50.526Z,60.66
2022-09-14T09:53:17.939Z,60.31
2022-09-14T09:55:41.803Z,56.72
2022-09-14T09:58:28.273Z,55.30
2022-09-14T10:01:03.611Z,56.16
2022-09-14T10:03:38.318Z,59.08
2022-09-14T10:06:09.969Z,55.31
2022-09-14T10:08:35.075Z,55.68
2022-09-14T10:10:58.627Z,57.50
2022-09-14T10:13:29.706Z,54.55
2022-09-14T10:15:54.209Z,53.77
2022-09-14T10:18:20.241Z,55.96
2022-09-14T10:21:06.640Z,57.54
2022-09-14T10:23:36.237Z,53.54
2022-09-14T10:26:28.498Z,54.81
2022-09-14T10:28:53.418Z,53.63
2022-09-14T10:31:26.624Z,53.28
2022-09-14T10:33:53.738Z,52.95
2022-09-14T10:36:25.645Z,59.31
2022-09-14T10:38:55.232Z,56.94
2022-09-14T10:41:29.173Z,50.90
2022-09-14T10:44:19.424Z,53.22
2022-09-14T10:46:51.350Z,49.93
2022-09-14T10:49:27.961Z,54.22
2022-09-14T10:52:06.858Z,52.96
2022-09-14T10:57:35.363Z,53.56
2022-09-14T11:00:07.072Z,50.59
2022-09-14T11:03:09.163Z,51.14
2022-09-14T11:05:37.887Z,51.61
2022-09-14T11:08:13.178Z,50.96
2022-09-14T11:10:48.428Z,52.79
2022-09-14T11:13:40.323Z,49.25
2022-09-14T11:16:23.534Z,50.62
2022-09-14T11:19:09.834Z,51.12
2022-09-14T11:21:50.439Z,49.43
2022-09-14T11:24:25.515Z,49.61
2022-09-14T11:27:00.619Z,48.39
2022-09-14T11:29:28.789Z,48.04
2022-09-14T11:32:19.179Z,46.82
2022-09-14T11:34:45.201Z,48.89
2022-09-14T11:37:14.840Z,51.34
2022-09-14T11:39:43.982Z,47.43
2022-09-14T11:42:13.374Z,54.62
2022-09-14T11:44:39.572Z,51.46
2022-09-14T11:47:09.227Z,50.50
2022-09-14T11:49:56.339Z,49.17
2022-09-14T11:52:22.600Z,48.18
2022-09-14T11:54:48.332Z,52.75
2022-09-14T11:57:18.841Z,51.23
2022-09-14T11:59:52.907Z,49.66
2022-09-14T12:02:59.822Z,52.02
2022-09-14T12:05:38.031Z,48.22
2022-09-14T12:08:05.796Z,51.27
2022-09-14T12:10:31.565Z,48.82
2022-09-14T12:12:56.654Z,49.05
2022-09-14T12:15:34.509Z,48.66
2022-09-14T12:18:22.594Z,53.20
2022-09-14T12:20:52.783Z,48.21
2022-09-14T12:23:30.587Z,47.65
2022-09-14T12:26:29.560Z,49.51
2022-09-14T12:28:56.939Z,50.86
2022-09-14T12:31:41.113Z,50.60
2022-09-14T12:34:20.696Z,50.20
2022-09-14T12:37:28.365Z,53.81
2022-09-14T12:40:36.328Z,51.13
2022-09-14T12:43:52.686Z,51.06
2022-09-14T12:46:40.937Z,50.75
2022-09-14T12:49:30.685Z,50.65
2022-09-14T12:51:54.955Z,51.07
2022-09-14T12:54:42.978Z,50.49
2022-09-14T12:57:26.940Z,49.42
2022-09-14T12:59:58.772Z,49.65
2022-09-14T13:02:54.461Z,53.32
2022-09-14T13:05:23.706Z,48.58
2022-09-14T13:07:48.110Z,51.94
2022-09-14T13:10:22.389Z,51.86
2022-09-14T13:12:47.052Z,49.85
2022-09-14T13:15:20.523Z,50.47
2022-09-14T13:18:01.265Z,48.09
2022-09-14T13:20:25.025Z,48.32
2022-09-14T13:22:48.545Z,50.50
2022-09-14T13:25:34.455Z,48.88
2022-09-14T13:27:58.960Z,51.52
2022-09-14T13:30:26.340Z,52.89
2022-09-14T13:32:53.580Z,50.17
2022-09-14T13:35:21.203Z,53.27
2022-09-14T13:37:48.195Z,52.62
2022-09-14T13:40:13.290Z,49.66
2022-09-14T13:42:37.114Z,50.99
2022-09-14T13:45:00.796Z,50.75
2022-09-14T13:47:27.175Z,51.65
2022-09-14T13:49:53.504Z,51.01
2022-09-14T13:52:57.008Z,51.46
2022-09-14T13:55:22.990Z,51.18
2022-09-14T13:58:22.720Z,50.92
2022-09-14T14:01:00.337Z,49.51
2022-09-14T14:03:36.606Z,51.67
2022-09-14T14:06:02.135Z,51.30
2022-09-14T14:08:39.240Z,49.46
2022-09-14T14:11:07.085Z,49.46
2022-09-14T14:13:34.120Z,50.53
2022-09-14T14:16:18.846Z,52.48
2022-09-14T14:18:52.172Z,52.60
2022-09-14T14:21:31.015Z,53.58
2022-09-14T14:24:20.725Z,51.96
2022-09-14T14:26:52.003Z,53.13
2022-09-14T14:29:17.935Z,50.33
2022-09-14T14:31:42.656Z,52.83
2022-09-14T14:34:22.061Z,53.22
2022-09-14T14:36:48.222Z,52.54
2022-09-14T14:39:12.906Z,52.56
2022-09-14T14:41:38.120Z,51.89
2022-09-14T14:44:03.632Z,52.79
2022-09-14T14:46:31.792Z,51.71
2022-09-14T14:48:56.152Z,52.65
2022-09-14T14:51:22.437Z,51.08
2022-09-14T14:53:47.039Z,53.53
2022-09-14T14:56:14.195Z,54.32
2022-09-14T14:58:46.068Z,54.10
2022-09-14T15:01:11.008Z,53.85
2022-09-14T15:03:35.348Z,53.72
2022-09-14T15:05:58.954Z,53.20
2022-09-14T15:08:23.859Z,52.76
2022-09-14T15:10:49.061Z,53.32
2022-09-14T15:13:13.449Z,52.80
2022-09-14T15:15:37.102Z,51.57
2022-09-14T15:18:00.840Z,54.99
2022-09-14T15:20:24.550Z,53.72
2022-09-14T15:22:48.895Z,54.71
2022-09-14T15:25:15.591Z,55.35
2022-09-14T15:27:39.495Z,58.52
2022-09-14T15:30:03.464Z,54.19
2022-09-14T15:32:27.258Z,57.13
2022-09-14T15:34:53.003Z,54.84
2022-09-14T15:37:17.013Z,57.69
2022-09-14T15:39:40.742Z,60.00
2022-09-14T15:42:06.320Z,54.13
2022-09-14T15:44:30.903Z,57.22
2022-09-14T15:46:54.951Z,56.80
2022-09-14T15:49:21.222Z,57.94
2022-09-14T15:51:46.468Z,60.99
2022-09-14T15:54:10.238Z,59.76
2022-09-14T15:56:33.731Z,60.64
2022-09-14T15:59:01.243Z,61.10
2022-09-14T16:01:24.800Z,62.29
2022-09-14T16:03:48.454Z,61.49
2022-09-14T16:06:13.772Z,61.22
2022-09-14T16:08:37.890Z,57.76
2022-09-14T16:11:02.706Z,60.95
2022-09-14T16:13:26.401Z,60.42
2022-09-14T16:15:53.581Z,59.29
2022-09-14T16:18:20.308Z,61.66
2022-09-14T16:20:43.815Z,60.65
2022-09-14T16:23:07.641Z,60.74
2022-09-14T16:25:31.214Z,62.43
2022-09-14T16:27:54.786Z,62.20
2022-09-14T16:30:18.355Z,61.03
2022-09-14T16:32:44.747Z,61.39
2022-09-14T16:35:10.495Z,62.59
2022-09-14T16:37:34.104Z,62.06
2022-09-14T16:39:57.772Z,62.25
2022-09-14T16:42:21.404Z,61.39
2022-09-14T16:44:45.044Z,63.00
2022-09-14T16:47:08.822Z,62.65
2022-09-14T16:49:33.749Z,63.98
2022-09-14T16:52:00.609Z,63.29
2022-09-14T16:54:26.233Z,62.78
2022-09-14T16:56:50.679Z,62.84
2022-09-14T16:59:15.776Z,63.94
2022-09-14T17:01:41.822Z,64.44
2022-09-14T17:04:08.529Z,65.33
2022-09-14T17:06:34.826Z,64.53
2022-09-14T17:09:01.456Z,65.29
2022-09-14T17:11:25.645Z,64.76
2022-09-14T17:13:49.231Z,65.09
2022-09-14T17:16:15.811Z,65.41
2022-09-14T17:18:42.146Z,64.12
2022-09-14T17:21:08.614Z,65.89
2022-09-14T17:23:34.315Z,63.82
2022-09-14T17:25:58.316Z,64.55
2022-09-14T17:28:25.319Z,66.19
2022-09-14T17:30:51.848Z,66.82
2022-09-14T17:33:15.376Z,66.71
2022-09-14T17:35:39.066Z,67.72
2022-09-14T17:38:02.857Z,67.52
2022-09-14T17:40:29.318Z,67.32
2022-09-14T17:42:53.219Z,67.68
2022-09-14T17:45:17.014Z,67.98
2022-09-14T17:47:40.540Z,66.92
2022-09-14T17:50:04.271Z,68.00
2022-09-14T17:52:27.847Z,68.89
2022-09-14T17:54:51.389Z,69.29
2022-09-14T17:57:16.483Z,70.22
2022-09-14T17:59:40.070Z,69.56
2022-09-14T18:02:03.589Z,69.78
2022-09-14T18:04:28.143Z,70.21
2022-09-14T18:06:51.855Z,70.01
2022-09-14T18:09:18.179Z,70.29
2022-09-14T18:11:42.481Z,71.85
2022-09-14T18:14:09.818Z,71.80
2022-09-14T18:16:33.993Z,72.63
2022-09-14T18:18:58.421Z,72.31
2022-09-14T18:21:24.102Z,72.14
2022-09-14T18:23:51.372Z,72.53
2022-09-14T18:26:14.933Z,71.63
2022-09-14T18:28:39.262Z,72.49
2022-09-14T18:31:07.120Z,73.29
2022-09-14T18:33:31.019Z,73.34
2022-09-14T18:35:55.196Z,73.18
2022-09-14T18:38:18.750Z,75.10
2022-09-14T18:40:42.274Z,74.09
2022-09-14T18:43:06.227Z,74.89
2022-09-14T18:45:30.071Z,73.66
2022-09-14T18:47:55.116Z,73.59
2022-09-14T18:50:19.186Z,74.18
2022-09-14T18:52:42.781Z,73.97
2022-09-14T18:55:07.767Z,73.84
2022-09-14T18:57:31.425Z,74.21
2022-09-14T18:59:55.079Z,72.80
2022-09-14T19:02:18.839Z,73.47
2022-09-14T19:04:43.951Z,74.80
2022-09-14T19:07:07.839Z,74.08
2022-09-14T19:09:31.793Z,74.90
2022-09-14T19:11:55.515Z,74.88
2022-09-14T19:14:20.679Z,74.97
2022-09-14T19:16:44.511Z,75.31
2022-09-14T19:19:09.314Z,74.23
2022-09-14T19:21:34.581Z,74.43
2022-09-14T19:24:00.553Z,75.89
2022-09-14T19:26:24.346Z,75.60
2022-09-14T19:28:48.018Z,74.96
2022-09-14T19:31:13.455Z,75.50
2022-09-14T19:33:40.015Z,75.97
2022-09-14T19:36:07.437Z,75.09
2022-09-14T19:38:32.415Z,75.31
2022-09-14T19:40:56.017Z,76.77
2022-09-14T19:43:19.624Z,77.41
2022-09-14T19:45:43.304Z,76.36
2022-09-14T19:48:06.869Z,77.31
2022-09-14T19:50:30.453Z,77.45
2022-09-14T19:52:54.991Z,76.37
2022-09-14T19:55:20.074Z,75.87
2022-09-14T19:57:43.618Z,76.11
2022-09-14T20:00:09.617Z,77.40
2022-09-14T20:02:33.398Z,77.29
2022-09-14T20:04:57.035Z,78.06
2022-09-14T20:07:20.660Z,77.80
2022-09-14T20:09:44.291Z,79.43
2022-09-14T20:12:09.743Z,78.14
2022-09-14T20:14:33.340Z,79.03
2022-09-14T20:16:59.171Z,78.25
2022-09-14T20:19:25.122Z,78.72
2022-09-14T20:21:51.194Z,79.22
2022-09-14T20:24:18.355Z,78.10
2022-09-14T20:26:42.718Z,77.52
2022-09-14T20:29:07.673Z,77.42
2022-09-14T20:31:32.319Z,78.10
2022-09-14T20:33:56.077Z,79.02
2022-09-14T20:36:21.997Z,78.68
2022-09-14T20:38:50.295Z,78.31
2022-09-14T20:41:17.966Z,78.80
2022-09-14T20:43:42.803Z,78.36
2022-09-14T20:46:10.003Z,78.47
2022-09-14T20:48:34.719Z,79.11
2022-09-14T20:50:59.178Z,79.75
2022-09-14T20:53:22.907Z,79.54
2022-09-14T20:55:46.435Z,81.61
2022-09-14T20:58:10.003Z,82.15
2022-09-14T21:00:33.583Z,80.91
2022-09-14T21:02:58.660Z,80.61
2022-09-14T21:05:22.203Z,81.67
2022-09-14T21:07:56.045Z,80.34
2022-09-14T21:10:20.078Z,79.97
2022-09-14T21:12:43.606Z,80.07
2022-09-14T21:15:08.063Z,79.69
2022-09-14T21:17:31.594Z,79.23
2022-09-14T21:19:56.602Z,79.85
2022-09-14T21:22:20.386Z,80.10
2022-09-14T21:24:43.951Z,80.40
2022-09-14T21:27:07.780Z,79.71
2022-09-14T21:29:31.803Z,80.75
2022-09-14T21:31:55.511Z,80.00
2022-09-14T21:34:19.511Z,80.24
2022-09-14T21:36:46.605Z,80.27
2022-09-14T21:39:12.631Z,80.34
2022-09-14T21:41:37.636Z,80.65
2022-09-14T21:44:01.598Z,80.93
2022-09-14T21:46:25.572Z,81.81
2022-09-14T21:48:49.387Z,80.60
2022-09-14T21:51:19.252Z,81.31
2022-09-14T21:53:46.879Z,81.43
2022-09-14T21:56:10.423Z,81.65
2022-09-14T21:58:34.554Z,80.64
2022-09-14T22:01:00.052Z,81.04
2022-09-14T22:03:24.110Z,81.76
2022-09-14T22:05:57.218Z,80.75
2022-09-14T22:08:20.795Z,81.27
2022-09-14T22:10:45.700Z,82.72
2022-09-14T22:13:09.296Z,83.17
2022-09-14T22:15:35.198Z,83.50
2022-09-14T22:18:02.114Z,82.60
2022-09-14T22:20:26.008Z,82.40
2022-09-14T22:22:49.627Z,81.49
2022-09-14T22:25:13.129Z,81.59
2022-09-14T22:27:41.247Z,81.97
2022-09-14T22:30:05.323Z,81.75
2022-09-14T22:32:28.930Z,81.45
2022-09-14T22:34:52.479Z,81.17
2022-09-14T22:37:16.026Z,80.65
2022-09-14T22:39:39.553Z,82.31
2022-09-14T22:42:03.871Z,81.20
2022-09-14T22:44:28.855Z,81.51
2022-09-14T22:46:52.435Z,80.86
2022-09-14T22:49:16.519Z,81.25
2022-09-14T22:51:40.391Z,81.27
2022-09-14T22:54:03.934Z,81.37
2022-09-14T22:56:31.252Z,81.50
2022-09-14T22:58:55.057Z,81.78
2022-09-14T23:01:24.389Z,80.58
2022-09-14T23:03:48.155Z,80.96
2022-09-14T23:06:12.392Z,81.20
2022-09-14T23:08:37.012Z,81.30
2022-09-14T23:11:05.239Z,81.43
2022-09-14T23:13:28.726Z,84.36
2022-09-14T23:15:52.327Z,82.58
2022-09-14T23:18:17.982Z,82.14
2022-09-14T23:20:43.828Z,85.53
2022-09-14T23:23:08.685Z,85.00
2022-09-14T23:25:34.231Z,87.14
2022-09-14T23:27:57.774Z,84.79
2022-09-14T23:30:21.397Z,86.84
2022-09-14T23:32:44.936Z,84.36
2022-09-14T23:35:11.658Z,87.51
2022-09-14T23:37:35.436Z,84.13
2022-09-14T23:39:59.043Z,85.30
2022-09-14T23:42:22.593Z,84.76
2022-09-14T23:44:46.127Z,87.75
2022-09-14T23:47:09.654Z,86.63
2022-09-14T23:49:33.269Z,84.50
2022-09-14T23:51:58.180Z,84.87
2022-09-14T23:54:22.090Z,84.60
2022-09-14T23:56:45.798Z,86.33
2022-09-14T23:59:13.056Z,84.64
